Time;durP1;ratioP1;P1;durP2;ratioP2;P2;SDS_P1;SDS_P2;PMS_P1;PMS_P2;Temp;Humidity;BMP_temperature;BMP_pressure;BME280_temperature;BME280_humidity;BME280_pressure;Samples;Min_cycle;Max_cycle;Signal;HPM_P1;HPM_P2
2022/11/16 00:01:01;;;;;;;14.38;9.00;;;10.10;99.90;;;;;;6275056;22;20061;-96
2022/11/16 00:03:26;;;;;;;13.48;8.85;;;10.70;99.90;;;;;;6229594;22;20015;-96
2022/11/16 00:06:03;;;;;;;12.80;8.05;;;10.00;99.90;;;;;;6231852;22;20077;-96
2022/11/16 00:08:31;;;;;;;12.63;9.25;;;10.10;99.90;;;;;;6229985;22;20019;-96
2022/11/16 00:11:22;;;;;;;13.38;9.65;;;10.00;99.90;;;;;;6233273;22;20067;-96
2022/11/16 00:14:37;;;;;;;14.05;8.93;;;9.90;99.90;;;;;;6268836;22;20007;-96
2022/11/16 00:22:22;;;;;;;13.52;8.02;;;10.10;99.90;;;;;;6203639;22;20021;-96
2022/11/16 00:24:48;;;;;;;13.95;9.23;;;10.00;99.90;;;;;;6137371;23;20104;-95
2022/11/16 00:27:13;;;;;;;13.50;9.65;;;10.10;99.90;;;;;;6182664;23;20017;-96
2022/11/16 00:29:39;;;;;;;13.95;9.48;;;10.20;99.90;;;;;;6131592;23;20024;-95
2022/11/16 00:32:05;;;;;;;15.98;9.80;;;10.10;99.90;;;;;;6129944;23;20054;-96
2022/11/16 00:34:31;;;;;;;14.05;9.95;;;10.20;99.90;;;;;;6130885;23;20044;-96
2022/11/16 00:36:59;;;;;;;13.75;9.55;;;10.10;99.90;;;;;;6133849;23;20013;-96
2022/11/16 00:39:59;;;;;;;12.90;9.15;;;10.30;99.90;;;;;;6172842;23;20025;-96
2022/11/16 00:42:25;;;;;;;12.77;9.82;;;9.70;99.90;;;;;;6139361;23;20040;-96
2022/11/16 00:44:51;;;;;;;14.25;9.98;;;10.30;99.90;;;;;;6145594;23;20065;-95
2022/11/16 00:47:21;;;;;;;17.77;10.38;;;10.20;99.90;;;;;;6142975;23;20025;-96
2022/11/16 00:49:47;;;;;;;15.35;9.75;;;10.20;99.90;;;;;;6112196;23;20043;-95
2022/11/16 00:52:12;;;;;;;14.02;9.45;;;10.10;99.90;;;;;;6137180;23;20028;-96
2022/11/16 00:54:38;;;;;;;14.73;9.70;;;10.20;99.90;;;;;;6138810;23;20009;-95
2022/11/16 00:57:04;;;;;;;15.32;9.52;;;9.80;99.90;;;;;;6137381;23;20024;-96
2022/11/16 00:59:44;;;;;;;14.57;9.90;;;10.20;99.90;;;;;;6147745;23;20040;-96
2022/11/16 01:02:13;;;;;;;18.13;10.98;;;10.20;99.90;;;;;;6145221;23;20032;-95
2022/11/16 01:04:44;;;;;;;17.13;10.32;;;10.70;99.90;;;;;;6151945;23;20040;-96
2022/11/16 01:07:11;;;;;;;15.55;10.07;;;10.30;99.90;;;;;;6139253;23;20056;-96
2022/11/16 01:09:37;;;;;;;16.60;9.65;;;10.20;99.90;;;;;;6111771;23;20357;-95
2022/11/16 01:12:09;;;;;;;17.90;11.13;;;10.10;99.90;;;;;;6162312;23;20013;-96
2022/11/16 01:14:38;;;;;;;17.15;9.57;;;10.30;99.90;;;;;;6114877;23;20069;-96
2022/11/16 01:17:04;;;;;;;18.55;11.15;;;10.30;99.90;;;;;;6157860;23;20013;-96
2022/11/16 01:19:31;;;;;;;17.48;10.60;;;11.30;99.90;;;;;;6144324;23;20689;-96
2022/11/16 01:21:57;;;;;;;17.02;10.80;;;11.30;99.90;;;;;;6143601;23;20025;-96
2022/11/16 01:24:25;;;;;;;16.42;10.57;;;10.30;99.90;;;;;;6143110;23;20065;-96
2022/11/16 01:26:50;;;;;;;19.33;10.30;;;10.20;99.90;;;;;;6134817;23;20032;-95
2022/11/16 01:29:16;;;;;;;17.10;10.18;;;10.20;99.90;;;;;;6143080;23;20017;-96
2022/11/16 01:31:43;;;;;;;14.70;10.18;;;10.40;99.90;;;;;;6171001;23;20021;-96
2022/11/16 01:34:10;;;;;;;15.13;10.32;;;10.20;99.90;;;;;;6151746;23;20073;-96
2022/11/16 01:36:38;;;;;;;15.15;10.35;;;10.30;99.90;;;;;;6180267;23;20437;-96
2022/11/16 01:39:06;;;;;;;15.38;9.35;;;10.60;99.90;;;;;;6139815;23;20100;-96
2022/11/16 01:41:32;;;;;;;16.02;9.27;;;10.40;99.90;;;;;;6140563;23;20020;-96
2022/11/16 01:44:01;;;;;;;14.00;9.18;;;10.40;99.90;;;;;;6136220;23;20024;-96
2022/11/16 01:46:28;;;;;;;15.63;9.57;;;10.30;99.90;;;;;;6157961;23;20052;-95
2022/11/16 01:49:04;;;;;;;14.40;9.82;;;10.40;99.90;;;;;;6156573;23;20021;-95
2022/11/16 01:51:31;;;;;;;12.70;9.35;;;10.20;99.90;;;;;;6205873;23;20013;-95
2022/11/16 01:53:59;;;;;;;15.38;9.80;;;10.30;99.90;;;;;;6155963;23;20017;-95
2022/11/16 01:56:25;;;;;;;15.70;9.40;;;10.70;99.90;;;;;;6156705;23;20028;-94
2022/11/16 01:58:51;;;;;;;16.30;9.82;;;10.70;99.90;;;;;;6131791;23;20017;-94
2022/11/16 02:01:17;;;;;;;16.33;10.18;;;10.70;99.90;;;;;;6155835;23;20017;-95
2022/11/16 02:03:43;;;;;;;17.35;9.82;;;10.90;99.90;;;;;;6131665;23;20079;-95
2022/11/16 02:06:25;;;;;;;13.43;8.90;;;10.40;99.90;;;;;;6132550;23;20017;-95
2022/11/16 02:12:22;;;;;;;14.48;9.68;;;10.40;99.90;;;;;;6156332;23;20080;-95
2022/11/16 02:15:04;;;;;;;21.45;9.60;;;10.50;99.90;;;;;;6159142;23;20346;-95
2022/11/16 02:18:02;;;;;;;12.98;9.23;;;10.30;99.90;;;;;;6161548;23;20013;-95
2022/11/16 02:20:50;;;;;;;14.60;8.73;;;10.50;99.90;;;;;;6164595;23;20789;-96
2022/11/16 02:23:44;;;;;;;13.52;9.45;;;10.30;99.90;;;;;;6187960;23;20025;-95
2022/11/16 02:26:26;;;;;;;12.98;8.73;;;10.30;99.90;;;;;;6196319;23;20019;-95
2022/11/16 02:29:15;;;;;;;13.40;8.13;;;10.40;99.90;;;;;;6168110;23;20128;-96
2022/11/16 02:31:54;;;;;;;12.27;8.15;;;10.30;99.90;;;;;;6166282;23;20016;-95
2022/11/16 02:34:22;;;;;;;11.80;7.78;;;10.30;99.90;;;;;;6163351;23;20020;-94
2022/11/16 02:36:51;;;;;;;12.20;8.25;;;11.20;99.90;;;;;;6160400;23;20074;-95
2022/11/16 02:39:22;;;;;;;12.68;8.30;;;10.80;99.90;;;;;;6161428;23;20017;-95
2022/11/16 02:41:50;;;;;;;15.38;8.38;;;10.60;99.90;;;;;;6160666;23;20024;-95
2022/11/16 02:44:23;;;;;;;14.13;8.20;;;10.60;99.90;;;;;;6161152;23;20016;-95
2022/11/16 02:46:55;;;;;;;16.80;8.40;;;11.20;99.90;;;;;;6157855;23;20020;-95
2022/11/16 02:49:22;;;;;;;14.25;7.55;;;10.50;99.90;;;;;;6161412;23;20027;-95
2022/11/16 02:51:49;;;;;;;11.30;8.20;;;10.60;99.90;;;;;;6163050;23;20472;-95
2022/11/16 02:54:18;;;;;;;15.93;8.27;;;11.30;99.90;;;;;;6162207;23;20471;-95
2022/11/16 02:57:13;;;;;;;14.88;8.18;;;10.60;99.90;;;;;;6160438;23;20027;-94
2022/11/16 02:59:43;;;;;;;16.50;8.88;;;10.30;99.90;;;;;;6161654;23;20017;-94
2022/11/16 03:02:25;;;;;;;18.02;8.85;;;10.60;99.90;;;;;;6161178;23;20475;-94
2022/11/16 03:04:58;;;;;;;16.53;8.77;;;10.50;99.90;;;;;;6160865;23;20017;-94
2022/11/16 03:07:31;;;;;;;15.43;8.80;;;10.50;99.90;;;;;;6160975;23;20298;-96
2022/11/16 03:09:58;;;;;;;15.68;8.93;;;10.50;99.90;;;;;;6161987;23;20328;-94
2022/11/16 03:12:30;;;;;;;14.75;9.02;;;10.30;99.90;;;;;;6160779;23;20013;-94
2022/11/16 03:15:00;;;;;;;15.90;8.55;;;10.50;99.90;;;;;;6161552;23;20471;-95
2022/11/16 03:17:31;;;;;;;17.95;9.93;;;10.40;99.90;;;;;;6160069;23;20015;-94
2022/11/16 03:20:08;;;;;;;16.88;9.18;;;10.50;99.90;;;;;;6161338;23;20017;-94
2022/11/16 03:22:44;;;;;;;14.65;8.93;;;10.50;99.90;;;;;;6161183;23;20107;-93
2022/11/16 03:25:13;;;;;;;14.70;9.80;;;10.40;99.90;;;;;;6160867;23;20012;-92
2022/11/16 03:28:08;;;;;;;14.52;9.23;;;10.30;99.90;;;;;;6160734;23;20028;-93
2022/11/16 03:30:49;;;;;;;13.88;9.20;;;10.30;99.90;;;;;;6160838;23;20020;-93
2022/11/16 03:33:21;;;;;;;18.80;10.50;;;10.50;99.90;;;;;;6161103;23;20020;-94
2022/11/16 03:35:54;;;;;;;14.85;9.15;;;10.50;99.90;;;;;;6185373;23;20021;-93
2022/11/16 03:38:23;;;;;;;13.88;8.68;;;10.30;99.90;;;;;;6161490;23;20499;-93
2022/11/16 03:40:50;;;;;;;19.70;9.93;;;10.50;99.90;;;;;;6159929;23;20020;-94
2022/11/16 03:43:19;;;;;;;19.55;10.43;;;10.30;99.90;;;;;;6161399;23;20075;-94
2022/11/16 03:45:45;;;;;;;23.33;9.57;;;10.50;99.90;;;;;;6184005;23;20016;-92
2022/11/16 03:48:12;;;;;;;16.50;9.52;;;10.60;99.90;;;;;;6160881;23;20016;-94
2022/11/16 03:50:39;;;;;;;15.05;9.57;;;10.40;99.90;;;;;;6160702;23;20020;-94
2022/11/16 03:53:05;;;;;;;17.42;10.02;;;10.50;99.90;;;;;;6160719;23;20027;-94
2022/11/16 03:55:30;;;;;;;16.58;10.25;;;10.30;99.90;;;;;;6161177;23;20016;-94
2022/11/16 03:57:56;;;;;;;18.02;9.90;;;10.50;99.90;;;;;;6160870;23;20013;-93
2022/11/16 04:00:22;;;;;;;16.38;9.90;;;10.50;99.90;;;;;;6160520;23;20075;-93
2022/11/16 04:02:50;;;;;;;16.38;10.73;;;10.90;99.90;;;;;;6159816;23;20020;-93
2022/11/16 04:24:38;;;;;;;21.20;12.07;;;10.30;99.90;;;;;;6186225;23;20020;-95
2022/11/16 04:29:56;;;;;;;21.52;12.48;;;10.40;99.90;;;;;;6184797;23;20457;-94
2022/11/16 04:37:55;;;;;;;23.35;12.65;;;10.20;99.90;;;;;;6184786;23;20030;-94
2022/11/16 04:40:24;;;;;;;23.13;13.05;;;10.00;99.90;;;;;;6161273;23;20055;-94
2022/11/16 04:42:51;;;;;;;22.83;13.48;;;10.10;99.90;;;;;;6184177;23;20025;-94
2022/11/16 04:48:05;;;;;;;19.08;13.27;;;10.20;99.90;;;;;;6185976;23;20031;-95
2022/11/16 04:50:35;;;;;;;19.85;13.25;;;9.70;99.90;;;;;;6184062;23;20415;-93
2022/11/16 04:53:01;;;;;;;23.65;13.98;;;10.30;99.90;;;;;;6186229;23;20103;-94
2022/11/16 04:55:26;;;;;;;21.10;13.55;;;10.50;99.90;;;;;;6185629;23;20017;-94
2022/11/16 04:57:52;;;;;;;22.92;13.98;;;10.10;99.90;;;;;;6161373;23;20039;-95
2022/11/16 05:00:18;;;;;;;26.60;15.63;;;10.20;99.90;;;;;;6163085;23;20060;-94
2022/11/16 05:02:44;;;;;;;21.65;13.52;;;10.80;99.90;;;;;;6161006;23;20013;-96
2022/11/16 05:05:11;;;;;;;23.52;13.25;;;10.30;99.90;;;;;;6188838;23;20055;-95
2022/11/16 05:07:37;;;;;;;24.95;14.32;;;10.10;99.90;;;;;;6165658;23;20032;-96
2022/11/16 05:10:05;;;;;;;26.88;14.55;;;10.10;99.90;;;;;;6161673;23;20043;-95
2022/11/16 05:12:32;;;;;;;25.50;15.00;;;10.20;99.90;;;;;;6165123;23;20036;-96
2022/11/16 05:15:39;;;;;;;24.88;14.27;;;10.10;99.90;;;;;;6164667;23;20314;-95
2022/11/16 05:18:10;;;;;;;23.77;14.52;;;10.10;99.90;;;;;;6161631;23;20032;-95
2022/11/16 05:21:00;;;;;;;26.73;15.30;;;10.40;99.90;;;;;;6170315;23;20414;-95
2022/11/16 05:26:12;;;;;;;26.00;14.55;;;10.30;99.90;;;;;;6186296;23;20063;-95
2022/11/16 05:28:38;;;;;;;21.60;14.68;;;10.10;99.90;;;;;;6162567;23;20276;-96
2022/11/16 05:31:03;;;;;;;27.92;16.23;;;10.10;99.90;;;;;;6161808;23;20071;-96
2022/11/16 05:33:29;;;;;;;25.50;15.00;;;10.10;99.90;;;;;;6162404;23;20021;-96
2022/11/16 05:35:55;;;;;;;25.88;15.27;;;10.20;99.90;;;;;;6162213;23;20016;-94
2022/11/16 05:38:21;;;;;;;27.02;17.05;;;10.10;99.90;;;;;;6161626;23;20100;-94
2022/11/16 05:41:00;;;;;;;;;;;;;;;;;;;;;
2022/11/16 05:43:47;;;;;;;27.85;15.07;;;10.30;99.90;;;;;;6186352;23;20048;-94
2022/11/16 05:47:01;;;;;;;28.38;16.40;;;10.30;99.90;;;;;;6161640;23;20017;-95
2022/11/16 05:49:06;;;;;;;22.67;15.63;;;10.20;99.90;;;;;;6168581;23;20031;-96
2022/11/16 05:51:34;;;;;;;20.63;14.50;;;10.10;99.90;;;;;;6161836;23;20051;-95
2022/11/16 05:54:00;;;;;;;22.85;14.82;;;10.20;99.90;;;;;;6160993;23;20025;-94
2022/11/16 05:56:26;;;;;;;24.70;15.93;;;10.10;99.90;;;;;;6162454;23;20017;-95
2022/11/16 05:58:54;;;;;;;24.83;16.02;;;10.30;99.90;;;;;;6162207;23;20027;-96
2022/11/16 06:01:43;;;;;;;26.88;16.73;;;10.10;99.90;;;;;;6185392;23;20083;-94
2022/11/16 06:04:09;;;;;;;26.65;16.77;;;10.40;99.90;;;;;;6186752;23;20020;-95
2022/11/16 06:06:38;;;;;;;28.77;17.00;;;10.30;99.90;;;;;;6160301;23;20437;-95
2022/11/16 06:09:09;;;;;;;26.55;16.08;;;9.80;99.90;;;;;;6185847;23;20478;-94
2022/11/16 06:11:54;;;;;;;28.63;17.33;;;10.30;99.90;;;;;;6168516;23;20020;-95
2022/11/16 06:14:19;;;;;;;24.27;16.00;;;10.10;99.90;;;;;;6161065;23;20024;-96
2022/11/16 06:16:45;;;;;;;34.70;18.15;;;10.10;99.90;;;;;;6160713;23;20117;-95
2022/11/16 06:19:11;;;;;;;22.23;15.05;;;10.30;99.90;;;;;;6161740;23;20024;-94
2022/11/16 06:21:36;;;;;;;27.63;16.33;;;10.10;99.90;;;;;;6160627;23;20058;-95
2022/11/16 06:24:07;;;;;;;27.55;16.20;;;10.10;99.90;;;;;;6161643;23;20143;-96
2022/11/16 06:26:33;;;;;;;25.77;15.57;;;10.40;99.90;;;;;;6161216;23;20013;-95
2022/11/16 06:28:59;;;;;;;35.80;16.77;;;10.30;99.90;;;;;;6168303;23;20020;-96
2022/11/16 06:32:00;;;;;;;;;;;;;;;;;;;;;
2022/11/16 06:35:04;;;;;;;38.13;18.25;;;10.70;99.90;;;;;;6185913;23;20099;-95
2022/11/16 06:38:28;;;;;;;;;;;;;;;;;;;;;
2022/11/16 06:41:33;;;;;;;30.15;18.02;;;10.10;99.90;;;;;;6113956;23;20028;-96
2022/11/16 06:59:19;;;;;;;;;;;;;;;;;;;;;
2022/11/16 07:03:14;;;;;;;;;;;;;;;;;;;;;
2022/11/16 07:13:39;;;;;;;36.20;18.30;;;10.20;99.90;;;;;;5981131;23;20037;-96
2022/11/16 07:17:10;;;;;;;28.67;17.30;;;10.30;99.90;;;;;;6062302;23;20082;-95
2022/11/16 07:20:40;;;;;;;22.20;14.90;;;10.00;99.90;;;;;;6054636;23;20049;-94
2022/11/16 07:23:11;;;;;;;21.63;13.07;;;10.30;99.90;;;;;;6068634;23;20068;-94
2022/11/16 07:25:37;;;;;;;23.50;15.05;;;10.10;99.90;;;;;;6131123;23;20024;-96
2022/11/16 07:28:05;;;;;;;28.70;16.08;;;10.20;99.90;;;;;;6160574;23;20441;-94
2022/11/16 07:30:33;;;;;;;22.10;14.82;;;10.20;99.90;;;;;;6161250;23;20095;-96
2022/11/16 07:33:02;;;;;;;18.88;11.93;;;11.10;99.90;;;;;;6189073;23;20016;-96
2022/11/16 07:35:48;;;;;;;15.50;10.77;;;10.30;99.90;;;;;;6161294;23;20370;-96
2022/11/16 07:38:32;;;;;;;18.27;12.75;;;10.30;99.90;;;;;;6185758;23;20364;-95
2022/11/16 07:41:02;;;;;;;21.20;13.63;;;10.40;99.90;;;;;;6186678;23;20460;-96
2022/11/16 07:43:30;;;;;;;19.73;13.55;;;10.20;99.90;;;;;;6164646;23;20008;-96
2022/11/16 07:46:03;;;;;;;23.60;14.63;;;10.70;99.90;;;;;;6166189;23;20464;-94
2022/11/16 07:48:32;;;;;;;26.27;14.75;;;10.30;99.90;;;;;;6166013;23;20399;-96
2022/11/16 07:51:01;;;;;;;25.85;16.13;;;10.20;99.90;;;;;;6168081;23;20476;-96
2022/11/16 07:53:27;;;;;;;19.95;13.30;;;10.30;99.90;;;;;;6161305;23;20013;-96
2022/11/16 07:55:53;;;;;;;22.83;14.88;;;10.30;99.90;;;;;;6164359;23;20024;-94
2022/11/16 07:58:19;;;;;;;26.30;16.23;;;10.80;99.90;;;;;;6160209;23;20020;-96
2022/11/16 08:00:45;;;;;;;24.85;15.48;;;10.70;99.90;;;;;;6159161;23;20056;-96
2022/11/16 08:03:10;;;;;;;25.60;15.82;;;10.70;99.90;;;;;;6163533;23;20052;-93
2022/11/16 08:05:36;;;;;;;20.67;13.18;;;10.40;99.90;;;;;;6160471;23;20099;-94
2022/11/16 08:08:02;;;;;;;23.60;14.10;;;10.20;99.90;;;;;;6159995;23;20103;-96
2022/11/16 08:10:32;;;;;;;24.52;14.88;;;10.40;99.90;;;;;;6186323;23;20441;-95
2022/11/16 08:12:57;;;;;;;26.33;15.98;;;10.30;99.90;;;;;;6161525;23;20020;-93
2022/11/16 08:15:24;;;;;;;22.50;14.90;;;10.50;99.90;;;;;;6159995;23;20095;-95
2022/11/16 08:17:50;;;;;;;23.45;15.18;;;10.40;99.90;;;;;;6160011;23;20100;-95
2022/11/16 08:20:16;;;;;;;23.17;15.40;;;10.40;99.90;;;;;;6159975;23;20433;-94
2022/11/16 08:22:42;;;;;;;26.02;15.90;;;10.30;99.90;;;;;;6156132;23;20021;-95
2022/11/16 08:25:08;;;;;;;30.15;16.75;;;10.30;99.90;;;;;;6157236;23;20013;-94
2022/11/16 08:27:35;;;;;;;24.52;16.63;;;10.30;99.90;;;;;;6129682;23;20115;-93
2022/11/16 08:30:02;;;;;;;32.42;17.92;;;10.20;99.90;;;;;;6155697;23;20013;-91
2022/11/16 08:32:31;;;;;;;28.80;17.30;;;10.40;99.90;;;;;;6131886;23;20449;-94
2022/11/16 08:34:57;;;;;;;23.02;14.50;;;10.50;99.90;;;;;;6123892;23;20025;-92
2022/11/16 08:37:24;;;;;;;24.73;15.38;;;10.20;99.90;;;;;;6157062;23;20017;-92
2022/11/16 08:39:50;;;;;;;24.00;14.13;;;10.20;99.90;;;;;;6134278;23;20017;-93
2022/11/16 08:42:16;;;;;;;26.33;16.35;;;10.50;99.90;;;;;;6135897;23;20071;-94
2022/11/16 08:44:41;;;;;;;27.63;16.38;;;11.00;99.90;;;;;;6133568;23;20017;-94
2022/11/16 08:47:07;;;;;;;24.77;15.82;;;10.30;99.90;;;;;;6133021;23;20033;-94
2022/11/16 08:49:33;;;;;;;26.23;16.05;;;10.50;99.90;;;;;;6132589;23;20161;-94
2022/11/16 08:52:21;;;;;;;24.67;15.73;;;10.40;99.90;;;;;;6134802;23;20028;-95
2022/11/16 08:54:47;;;;;;;27.70;16.25;;;10.40;99.90;;;;;;6173336;23;20021;-96
2022/11/16 08:57:13;;;;;;;30.00;17.75;;;10.20;99.90;;;;;;6146419;23;20024;-94
2022/11/16 08:59:39;;;;;;;27.38;15.07;;;10.30;99.90;;;;;;6149288;23;20303;-95
2022/11/16 09:02:11;;;;;;;25.35;16.33;;;10.50;99.90;;;;;;6143382;23;20070;-96
2022/11/16 09:04:37;;;;;;;26.10;15.03;;;10.30;99.90;;;;;;6148759;23;20083;-96
2022/11/16 09:07:21;;;;;;;20.98;14.55;;;10.40;99.90;;;;;;6143518;23;20613;-96
2022/11/16 09:10:29;;;;;;;20.63;14.10;;;10.80;99.90;;;;;;6170101;23;20438;-96
2022/11/16 09:13:47;;;;;;;23.20;15.05;;;10.30;99.90;;;;;;6135791;23;20025;-96
2022/11/16 09:16:07;;;;;;;21.08;14.27;;;10.40;99.90;;;;;;6198233;23;20397;-95
2022/11/16 09:19:21;;;;;;;20.52;13.13;;;10.40;99.90;;;;;;6178856;23;20063;-96
2022/11/16 09:25:55;;;;;;;19.02;12.38;;;10.40;99.90;;;;;;6281358;22;20075;-96
2022/11/16 09:31:57;;;;;;;17.50;12.02;;;10.60;99.90;;;;;;6278200;22;20019;-93
2022/11/16 09:34:43;;;;;;;18.38;11.85;;;10.40;99.90;;;;;;6266963;22;20022;-96
2022/11/16 09:37:27;;;;;;;18.27;11.95;;;10.50;99.90;;;;;;6276455;22;20050;-95
2022/11/16 09:40:02;;;;;;;21.38;12.82;;;10.50;99.90;;;;;;6258666;22;20073;-96
2022/11/16 09:47:56;;;;;;;21.40;13.40;;;10.80;99.90;;;;;;6242122;22;20034;-96
2022/11/16 09:51:01;;;;;;;17.85;12.73;;;10.90;99.90;;;;;;6240188;22;20024;-96
2022/11/16 10:08:32;;;;;;;23.40;16.77;;;11.10;99.90;;;;;;6129008;23;20557;-96
2022/11/16 10:15:22;;;;;;;21.23;15.82;;;11.30;99.90;;;;;;6210766;22;20024;-92
2022/11/16 10:18:23;;;;;;;24.40;17.05;;;11.30;99.90;;;;;;6242386;22;20024;-96
2022/11/16 10:21:31;;;;;;;22.17;16.48;;;11.20;99.90;;;;;;6218697;22;20024;-96
2022/11/16 10:29:04;;;;;;;21.63;15.18;;;11.50;99.90;;;;;;6219466;23;20020;-95
2022/11/16 10:31:44;;;;;;;19.52;15.18;;;11.60;99.90;;;;;;6229273;23;20062;-96
2022/11/16 10:34:56;;;;;;;24.50;15.45;;;11.50;99.90;;;;;;6207771;23;20016;-96
2022/11/16 10:40:58;;;;;;;22.50;15.35;;;11.70;99.90;;;;;;6215834;23;20024;-96
2022/11/16 10:43:30;;;;;;;20.42;15.77;;;11.80;99.90;;;;;;6190215;23;20016;-96
2022/11/16 10:46:53;;;;;;;20.63;15.73;;;11.80;99.90;;;;;;6245688;22;20032;-96
2022/11/16 10:50:12;;;;;;;18.15;15.00;;;11.70;99.90;;;;;;6195133;23;20116;-96
2022/11/16 10:52:22;;;;;;;18.15;14.85;;;11.70;99.90;;;;;;6208726;23;20024;-94
2022/11/16 10:54:48;;;;;;;17.20;13.70;;;11.90;99.90;;;;;;6253258;22;20020;-95
2022/11/16 10:57:17;;;;;;;18.98;13.68;;;11.60;99.90;;;;;;6221817;22;20015;-96
2022/11/16 10:59:49;;;;;;;18.40;14.05;;;11.70;99.90;;;;;;6221874;22;20015;-95
2022/11/16 11:02:29;;;;;;;20.17;15.23;;;11.70;99.90;;;;;;6216417;22;20077;-95
2022/11/16 11:08:39;;;;;;;20.42;13.35;;;12.00;99.90;;;;;;6185271;22;20038;-95
2022/11/16 11:15:10;;;;;;;18.73;12.65;;;11.90;99.90;;;;;;6248290;22;20026;-94
2022/11/16 11:18:18;;;;;;;16.80;12.23;;;12.00;99.90;;;;;;6246240;22;20069;-96
2022/11/16 11:21:17;;;;;;;17.13;11.38;;;12.00;99.90;;;;;;6174475;22;20023;-96
2022/11/16 11:24:03;;;;;;;;;;;12.10;99.90;;;;;;6197346;23;20025;-95
2022/11/16 11:27:05;;;;;;;14.95;11.00;;;12.50;99.90;;;;;;6124511;23;19917;-94
2022/11/16 11:29:36;;;;;;;15.40;10.48;;;12.10;99.90;;;;;;6101064;23;20097;-94
2022/11/16 11:32:06;;;;;;;17.60;10.10;;;12.10;99.90;;;;;;6144919;23;20095;-92
2022/11/16 11:34:38;;;;;;;16.55;9.55;;;12.30;99.90;;;;;;6196584;23;20074;-94
2022/11/16 11:37:11;;;;;;;20.52;10.27;;;12.20;99.90;;;;;;6192875;23;20024;-94
2022/11/16 11:39:37;;;;;;;15.50;8.07;;;12.10;99.90;;;;;;6198179;23;20020;-93
2022/11/16 11:42:13;;;;;;;13.75;8.10;;;12.20;99.90;;;;;;6193428;23;20020;-93
2022/11/16 11:44:46;;;;;;;14.13;7.45;;;12.10;99.90;;;;;;6190200;23;20310;-93
2022/11/16 11:47:21;;;;;;;14.35;8.23;;;12.10;99.90;;;;;;6190633;23;20094;-92
2022/11/16 11:49:53;;;;;;;14.80;7.32;;;12.00;99.90;;;;;;6191197;23;20016;-92
2022/11/16 11:52:31;;;;;;;16.10;6.72;;;11.90;99.90;;;;;;6193883;23;20016;-91
2022/11/16 11:54:56;;;;;;;13.43;6.80;;;11.80;99.90;;;;;;6199013;23;20444;-92
2022/11/16 11:57:24;;;;;;;12.70;6.55;;;11.70;99.90;;;;;;6193436;23;20089;-93
2022/11/16 11:59:52;;;;;;;14.82;5.93;;;11.70;99.90;;;;;;6195583;23;20027;-92
2022/11/16 12:02:51;;;;;;;13.00;6.50;;;11.60;99.90;;;;;;6197067;23;20103;-92
2022/11/16 12:05:34;;;;;;;13.13;5.95;;;11.70;99.90;;;;;;6212573;23;20023;-92
2022/11/16 12:08:11;;;;;;;14.30;6.30;;;11.70;99.90;;;;;;6199117;22;20027;-91
2022/11/16 12:10:50;;;;;;;15.77;5.90;;;11.70;99.90;;;;;;6200810;23;20246;-95
2022/11/16 12:13:41;;;;;;;13.52;6.50;;;11.80;99.90;;;;;;6190134;23;20505;-95
2022/11/16 12:16:33;;;;;;;17.80;6.85;;;11.90;99.90;;;;;;6187803;23;20053;-90
2022/11/16 13:17:32;;;;;;;9.77;2.53;;;12.50;99.90;;;;;;6238861;23;20016;-84
2022/11/16 13:20:02;;;;;;;8.07;2.17;;;12.60;99.90;;;;;;6214560;23;20518;-85
2022/11/16 13:22:31;;;;;;;12.73;2.28;;;12.60;99.90;;;;;;6213741;23;20012;-85
2022/11/16 13:25:19;;;;;;;11.23;2.35;;;12.60;99.90;;;;;;6189230;23;20043;-85
2022/11/16 13:27:52;;;;;;;9.27;2.30;;;12.60;99.90;;;;;;6213812;23;20093;-85
2022/11/16 13:30:22;;;;;;;13.25;2.33;;;12.60;99.90;;;;;;6213601;23;20370;-85
2022/11/16 13:33:16;;;;;;;10.63;2.13;;;12.50;99.90;;;;;;6212097;23;20031;-85
2022/11/16 13:35:41;;;;;;;10.15;1.90;;;12.50;99.90;;;;;;6213700;23;20123;-85
2022/11/16 13:50:34;;;;;;;8.02;1.48;;;12.30;99.90;;;;;;6004295;23;20035;-89
2022/11/16 13:54:18;;;;;;;13.88;2.13;;;12.30;99.90;;;;;;5988159;23;20066;-88
2022/11/16 15:09:47;;;;;;;14.40;2.80;;;10.70;99.90;;;;;;6238884;22;20271;-88
2022/11/16 18:00:58;;;;;;;49.65;32.25;;;9.40;99.90;;;;;;6263180;22;20046;-86
2022/11/16 18:16:00;;;;;;;;;;;;;;;;;;;;;
2022/11/16 18:49:52;;;;;;;41.05;28.70;;;9.30;99.90;;;;;;6245142;22;20103;-88
2022/11/16 20:51:20;;;;;;;49.30;28.13;;;8.20;99.90;;;;;;6258858;22;20030;-90
2022/11/16 21:41:41;;;;;;;;;;;;;;;;;;;;;
2022/11/16 21:48:49;;;;;;;;;;;;;;;;;;;;;
2022/11/16 21:55:58;;;;;;;41.55;24.95;;;8.50;99.90;;;;;;6268132;22;20343;-87
2022/11/16 22:10:16;;;;;;;38.67;24.10;;;7.70;99.90;;;;;;6120093;23;20793;-88
2022/11/16 22:25:51;;;;;;;;;;;;;;;;;;;;;
2022/11/16 22:37:29;;;;;;;;;;;;;;;;;;;;;
2022/11/16 22:40:56;;;;;;;;;;;;;;;;;;;;;
2022/11/16 22:51:47;;;;;;;;;;;;;;;;;;;;;
2022/11/16 22:57:58;;;;;;;;;;;;;;;;;;;;;
2022/11/16 23:16:28;;;;;;;29.25;18.17;;;7.90;99.90;;;;;;6301814;22;20530;-87
2022/11/16 23:35:45;;;;;;;26.95;15.80;;;7.90;99.90;;;;;;6061402;23;20021;-87
2022/11/16 23:39:10;;;;;;;;;;;;;;;;;;;;;
2022/11/16 23:50:29;;;;;;;21.25;13.77;;;7.10;99.90;;;;;;5965017;23;20031;-89
2022/11/16 23:54:03;;;;;;;;;;;;;;;;;;;;;
